PIMOHWEATHER Station Historical Data
Daily Summary for June 12, 2020 Units:  Metric    English   Both
Daily Weekly Monthly Yearly
  High: Low: Average:
Temperature: 32.0 °C 25.0 °C 27.6 °C
Dew Point: 27.0 °C 24.0 °C 25.2 °C
Humidity: 99% 71% 87%
Wind Speed: 29km/h 0km/h 12.5km/h
Wind Gust: 36km/h - -
Wind- - SSE
Pressure: 1006.1 hPa 1001.5 hPa -
Precipitation: 11.43 mm    
 
 
Tabular Data for June 12, 2020
Time Temperature Dew Point Pressure Wind Wind Speed Wind Gust Humidity Rainfall Rate (Hourly) solar
00:04 26.0 °C 26.0 °C 1003.3 hPa SE 9 km/h 12 km/h 96% 0.00 mm 0.00 W/m2
00:09 26.0 °C 26.0 °C 1003.3 hPa SE 6 km/h 8 km/h 96% 0.00 mm 0.00 W/m2
00:14 26.0 °C 26.0 °C 1003.2 hPa ESE 6 km/h 8 km/h 96% 0.00 mm 0.00 W/m2
00:19 26.0 °C 26.0 °C 1003.2 hPa East 5 km/h 8 km/h 96% 0.00 mm 0.00 W/m2
00:24 26.0 °C 26.0 °C 1003.1 hPa ESE 3 km/h 4 km/h 96% 0.00 mm 0.00 W/m2
00:29 26.0 °C 26.0 °C 1003.0 hPa ESE 8 km/h 12 km/h 96% 0.00 mm 0.00 W/m2
00:34 26.0 °C 26.0 °C 1002.9 hPa SE 8 km/h 12 km/h 96% 0.00 mm 0.00 W/m2
00:39 26.0 °C 26.0 °C 1002.9 hPa ESE 4 km/h 8 km/h 96% 0.00 mm 0.00 W/m2
00:44 26.0 °C 26.0 °C 1002.9 hPa SE 6 km/h 8 km/h 96% 0.00 mm 0.00 W/m2
00:49 26.0 °C 26.0 °C 1002.7 hPa SE 6 km/h 8 km/h 96% 0.00 mm 0.00 W/m2
00:54 26.0 °C 26.0 °C 1002.7 hPa SE 10 km/h 16 km/h 96% 0.00 mm 0.00 W/m2
00:59 26.0 °C 26.0 °C 1002.7 hPa SE 16 km/h 20 km/h 96% 0.00 mm 0.00 W/m2
01:04 26.0 °C 26.0 °C 1002.7 hPa SE 14 km/h 20 km/h 96% 0.00 mm 0.00 W/m2
01:09 26.0 °C 26.0 °C 1002.6 hPa SE 13 km/h 16 km/h 96% 0.00 mm 0.00 W/m2
01:14 26.0 °C 26.0 °C 1002.5 hPa SE 15 km/h 20 km/h 96% 0.00 mm 0.00 W/m2
01:19 26.0 °C 26.0 °C 1002.5 hPa SE 18 km/h 24 km/h 96% 0.00 mm 0.00 W/m2
01:24 26.0 °C 26.0 °C 1002.4 hPa SE 17 km/h 20 km/h 96% 0.00 mm 0.00 W/m2
01:29 26.0 °C 26.0 °C 1002.4 hPa SE 19 km/h 20 km/h 96% 0.00 mm 0.00 W/m2
01:34 26.0 °C 26.0 °C 1002.4 hPa SSE 14 km/h 16 km/h 96% 0.00 mm 0.00 W/m2
01:39 26.0 °C 26.0 °C 1002.4 hPa SE 15 km/h 16 km/h 96% 0.00 mm 0.00 W/m2
01:44 26.0 °C 25.0 °C 1002.4 hPa SSE 17 km/h 20 km/h 95% 0.00 mm 0.00 W/m2
01:49 26.0 °C 25.0 °C 1002.4 hPa SE 17 km/h 24 km/h 95% 0.00 mm 0.00 W/m2
01:54 26.0 °C 25.0 °C 1002.4 hPa SE 15 km/h 20 km/h 95% 0.00 mm 0.00 W/m2
01:59 26.0 °C 25.0 °C 1002.0 hPa SE 18 km/h 24 km/h 95% 0.00 mm 0.00 W/m2
02:04 26.0 °C 25.0 °C 1002.0 hPa SE 17 km/h 20 km/h 95% 0.00 mm 0.00 W/m2
02:09 26.0 °C 25.0 °C 1002.4 hPa SE 8 km/h 12 km/h 95% 0.00 mm 0.00 W/m2
02:14 26.0 °C 25.0 °C 1002.4 hPa SE 13 km/h 16 km/h 95% 0.00 mm 0.00 W/m2
02:19 26.0 °C 25.0 °C 1002.1 hPa SE 12 km/h 20 km/h 95% 0.00 mm 0.00 W/m2
02:24 26.0 °C 25.0 °C 1002.1 hPa SE 7 km/h 12 km/h 95% 0.00 mm 0.00 W/m2
02:29 26.0 °C 25.0 °C 1002.1 hPa Calm     95% 0.00 mm 0.00 W/m2
02:34 26.0 °C 25.0 °C 1002.1 hPa Calm   4 km/h 95% 0.00 mm 0.00 W/m2
02:39 26.0 °C 25.0 °C 1002.2 hPa Calm     95% 0.00 mm 0.00 W/m2
02:44 26.0 °C 25.0 °C 1002.0 hPa Calm     95% 0.00 mm 0.00 W/m2
02:49 26.0 °C 25.0 °C 1002.0 hPa Calm     95% 0.00 mm 0.00 W/m2
02:54 26.0 °C 25.0 °C 1002.0 hPa Calm   4 km/h 95% 0.00 mm 0.00 W/m2
02:59 26.0 °C 25.0 °C 1002.0 hPa East 2 km/h 4 km/h 95% 0.00 mm 0.00 W/m2
03:04 26.0 °C 25.0 °C 1002.0 hPa ESE 1 km/h 8 km/h 96% 10.80 mm 0.00 W/m2
03:09 26.0 °C 25.0 °C 1001.8 hPa Calm     97% 19.81 mm 0.00 W/m2
03:14 26.0 °C 25.0 °C 1001.8 hPa South 1 km/h 4 km/h 97% 19.81 mm 0.00 W/m2
03:19 26.0 °C 25.0 °C 1002.0 hPa SE 10 km/h 12 km/h 97% 8.99 mm 0.00 W/m2
03:24 26.0 °C 25.0 °C 1001.8 hPa SSE 18 km/h 24 km/h 97% 0.00 mm 0.00 W/m2
03:29 26.0 °C 25.0 °C 1001.9 hPa SE 15 km/h 20 km/h 97% 0.00 mm 0.00 W/m2
03:34 26.0 °C 25.0 °C 1001.8 hPa SSE 15 km/h 20 km/h 97% 0.00 mm 0.00 W/m2
03:39 26.0 °C 25.0 °C 1001.8 hPa SE 15 km/h 20 km/h 97% 0.00 mm 0.00 W/m2
03:44 25.0 °C 25.0 °C 1001.9 hPa SE 22 km/h 24 km/h 98% 1.80 mm 0.00 W/m2
03:49 25.0 °C 25.0 °C 1001.8 hPa SE 18 km/h 24 km/h 98% 1.80 mm 0.00 W/m2
03:54 25.0 °C 25.0 °C 1001.9 hPa SE 17 km/h 24 km/h 98% 1.80 mm 0.00 W/m2
03:56 25.0 °C 25.0 °C 1001.5 hPa SE 11 km/h 16 km/h 98% 0.00 mm 0.00 W/m2
04:04 25.0 °C 25.0 °C 1001.9 hPa SSE 23 km/h 28 km/h 98% 1.80 mm 0.00 W/m2
04:09 25.0 °C 25.0 °C 1001.9 hPa SE 15 km/h 20 km/h 98% 1.80 mm 0.00 W/m2
04:14 26.0 °C 25.0 °C 1002.0 hPa SE 16 km/h 24 km/h 98% 1.80 mm 0.00 W/m2
04:19 26.0 °C 25.0 °C 1002.0 hPa SE 17 km/h 20 km/h 98% 0.00 mm 0.00 W/m2
04:24 26.0 °C 25.0 °C 1002.1 hPa SSE 15 km/h 16 km/h 98% 0.00 mm 0.00 W/m2
04:29 26.0 °C 25.0 °C 1002.1 hPa SE 12 km/h 16 km/h 99% 0.00 mm 0.00 W/m2
04:34 26.0 °C 26.0 °C 1002.2 hPa SSE 5 km/h 8 km/h 99% 0.00 mm 0.00 W/m2
04:39 26.0 °C 26.0 °C 1002.3 hPa SSE 13 km/h 16 km/h 99% 1.80 mm 0.00 W/m2
04:44 26.0 °C 26.0 °C 1002.5 hPa SSE 16 km/h 24 km/h 99% 3.61 mm 0.00 W/m2
04:49 25.0 °C 25.0 °C 1002.4 hPa SSE 12 km/h 16 km/h 99% 3.61 mm 0.00 W/m2
04:54 25.0 °C 25.0 °C 1002.5 hPa SSE 18 km/h 20 km/h 99% 8.99 mm 0.00 W/m2
04:59 25.0 °C 25.0 °C 1002.6 hPa SSE 6 km/h 8 km/h 99% 16.21 mm 0.00 W/m2
05:04 25.0 °C 25.0 °C 1002.7 hPa SSE 13 km/h 16 km/h 99% 30.61 mm 0.00 W/m2
05:09 25.0 °C 25.0 °C 1002.7 hPa SSE 10 km/h 12 km/h 99% 28.80 mm 0.00 W/m2
05:14 25.0 °C 25.0 °C 1002.7 hPa SE 9 km/h 12 km/h 99% 23.39 mm 0.00 W/m2
05:19 25.0 °C 25.0 °C 1002.8 hPa SE 8 km/h 12 km/h 99% 3.61 mm 0.00 W/m2
05:24 25.0 °C 25.0 °C 1002.8 hPa SSE 5 km/h 8 km/h 99% 0.00 mm 0.00 W/m2
05:29 25.0 °C 25.0 °C 1002.9 hPa SE 6 km/h 8 km/h 99% 0.00 mm 0.00 W/m2
05:34 25.0 °C 25.0 °C 1002.9 hPa SE 9 km/h 12 km/h 99% 0.00 mm 0.00 W/m2
05:38 25.0 °C 25.0 °C 1002.9 hPa SE 9 km/h 12 km/h 99% 0.00 mm 0.00 W/m2
05:44 25.0 °C 25.0 °C 1003.1 hPa SE 10 km/h 12 km/h 99% 0.00 mm 2.85 W/m2
05:49 25.0 °C 25.0 °C 1002.9 hPa SE 13 km/h 16 km/h 99% 0.00 mm 6.41 W/m2
05:54 25.0 °C 25.0 °C 1003.0 hPa SE 15 km/h 16 km/h 99% 0.00 mm 11.04 W/m2
05:59 25.0 °C 25.0 °C 1003.0 hPa SE 15 km/h 20 km/h 98% 0.00 mm 16.37 W/m2
06:04 25.0 °C 25.0 °C 1003.1 hPa SE 17 km/h 20 km/h 98% 0.00 mm 20.19 W/m2
06:09 26.0 °C 25.0 °C 1003.4 hPa SE 15 km/h 16 km/h 97% 0.00 mm 24.58 W/m2
06:14 26.0 °C 25.0 °C 1003.4 hPa SE 17 km/h 20 km/h 96% 0.00 mm 27.41 W/m2
06:19 26.0 °C 25.0 °C 1003.5 hPa SE 15 km/h 16 km/h 94% 0.00 mm 28.72 W/m2
06:24 26.0 °C 25.0 °C 1003.6 hPa SE 10 km/h 12 km/h 94% 0.00 mm 31.18 W/m2
06:29 26.0 °C 25.0 °C 1003.6 hPa SE 15 km/h 16 km/h 94% 0.00 mm 32.61 W/m2
06:34 26.0 °C 25.0 °C 1003.6 hPa SE 14 km/h 16 km/h 94% 0.00 mm 46.57 W/m2
06:39 26.0 °C 25.0 °C 1003.8 hPa SE 16 km/h 20 km/h 94% 0.00 mm 56.58 W/m2
06:44 26.0 °C 25.0 °C 1003.6 hPa SE 13 km/h 16 km/h 94% 0.00 mm 66.04 W/m2
06:45 26.0 °C 25.0 °C 1003.7 hPa ESE 3 km/h 4 km/h 94% 0.00 mm 68.09 W/m2
06:54 26.0 °C 25.0 °C 1003.7 hPa ESE 10 km/h 12 km/h 93% 0.00 mm 84.90 W/m2
06:59 26.0 °C 25.0 °C 1003.8 hPa SE 21 km/h 24 km/h 93% 0.00 mm 90.89 W/m2
07:04 26.0 °C 25.0 °C 1004.0 hPa SE 6 km/h 8 km/h 93% 0.00 mm 98.55 W/m2
07:09 26.0 °C 25.0 °C 1004.2 hPa SE 10 km/h 16 km/h 92% 0.00 mm 105.94 W/m2
07:14 26.0 °C 25.0 °C 1004.0 hPa SE 16 km/h 24 km/h 92% 0.00 mm 109.98 W/m2
07:19 27.0 °C 25.0 °C 1004.2 hPa SE 10 km/h 16 km/h 91% 0.00 mm 114.60 W/m2
07:24 27.0 °C 25.0 °C 1004.1 hPa SE 18 km/h 20 km/h 91% 0.00 mm 120.69 W/m2
07:29 27.0 °C 25.0 °C 1004.1 hPa SE 10 km/h 12 km/h 90% 0.00 mm 125.95 W/m2
07:34 27.0 °C 25.0 °C 1004.1 hPa SE 9 km/h 12 km/h 90% 0.00 mm 132.02 W/m2
07:39 27.0 °C 25.0 °C 1004.2 hPa SE 13 km/h 16 km/h 89% 0.00 mm 138.04 W/m2
07:44 27.0 °C 25.0 °C 1004.3 hPa SE 14 km/h 16 km/h 88% 0.00 mm 146.90 W/m2
07:49 27.0 °C 25.0 °C 1004.3 hPa SE 19 km/h 20 km/h 88% 0.00 mm 158.03 W/m2
07:54 27.0 °C 25.0 °C 1004.4 hPa SE 19 km/h 24 km/h 87% 0.00 mm 174.03 W/m2
07:59 28.0 °C 25.0 °C 1004.4 hPa SE 15 km/h 24 km/h 86% 0.00 mm 177.41 W/m2
08:04 28.0 °C 25.0 °C 1004.6 hPa SE 25 km/h 28 km/h 86% 0.00 mm 179.83 W/m2
08:09 28.0 °C 25.0 °C 1004.5 hPa SE 26 km/h 28 km/h 85% 0.00 mm 188.66 W/m2
08:14 28.0 °C 25.0 °C 1004.6 hPa SE 23 km/h 28 km/h 85% 0.00 mm 215.82 W/m2
08:19 28.0 °C 25.0 °C 1004.6 hPa SE 18 km/h 24 km/h 85% 0.00 mm 218.41 W/m2
08:24 28.0 °C 25.0 °C 1004.6 hPa SE 22 km/h 24 km/h 85% 0.00 mm 197.42 W/m2
08:29 28.0 °C 25.0 °C 1004.6 hPa SE 23 km/h 28 km/h 84% 0.00 mm 185.38 W/m2
08:34 28.0 °C 25.0 °C 1004.7 hPa SE 18 km/h 24 km/h 84% 0.00 mm 174.13 W/m2
08:39 28.0 °C 25.0 °C 1004.7 hPa SSE 20 km/h 24 km/h 84% 0.00 mm 181.20 W/m2
08:44 28.0 °C 25.0 °C 1004.7 hPa SSE 23 km/h 24 km/h 83% 0.00 mm 194.85 W/m2
08:49 28.0 °C 25.0 °C 1004.7 hPa SSE 25 km/h 32 km/h 83% 0.00 mm 210.76 W/m2
08:54 28.0 °C 25.0 °C 1004.7 hPa SE 27 km/h 32 km/h 83% 0.00 mm 182.89 W/m2
08:59 28.0 °C 25.0 °C 1004.7 hPa SSE 15 km/h 24 km/h 83% 0.00 mm 163.44 W/m2
09:04 28.0 °C 25.0 °C 1004.9 hPa SSE 20 km/h 24 km/h 84% 0.00 mm 141.29 W/m2
09:09 28.0 °C 25.0 °C 1005.0 hPa SSE 16 km/h 20 km/h 83% 0.00 mm 130.90 W/m2
09:14 28.0 °C 25.0 °C 1005.0 hPa SSE 20 km/h 24 km/h 83% 0.00 mm 163.44 W/m2
09:19 28.0 °C 25.0 °C 1004.9 hPa SSE 15 km/h 20 km/h 84% 0.00 mm 174.74 W/m2
09:24 28.0 °C 25.0 °C 1005.0 hPa SSE 22 km/h 24 km/h 84% 0.00 mm 187.56 W/m2
09:29 28.0 °C 25.0 °C 1005.0 hPa SSE 23 km/h 28 km/h 85% 0.00 mm 206.03 W/m2
09:34 28.0 °C 25.0 °C 1005.1 hPa SSE 19 km/h 24 km/h 85% 0.00 mm 204.25 W/m2
09:39 28.0 °C 25.0 °C 1005.1 hPa SSE 26 km/h 32 km/h 86% 0.00 mm 165.05 W/m2
09:44 28.0 °C 25.0 °C 1005.1 hPa SSE 22 km/h 28 km/h 89% 0.00 mm 174.32 W/m2
09:49 27.0 °C 25.0 °C 1005.1 hPa SSE 29 km/h 36 km/h 89% 0.00 mm 186.46 W/m2
09:54 27.0 °C 25.0 °C 1004.9 hPa SSE 15 km/h 24 km/h 88% 0.00 mm 213.20 W/m2
09:59 28.0 °C 25.0 °C 1005.1 hPa SSE 24 km/h 28 km/h 86% 0.00 mm 205.30 W/m2
10:04 28.0 °C 25.0 °C 1005.1 hPa SSE 19 km/h 24 km/h 85% 0.00 mm 213.55 W/m2
10:09 28.0 °C 25.0 °C 1004.8 hPa SSE 22 km/h 24 km/h 85% 0.00 mm 256.95 W/m2
10:14 28.0 °C 25.0 °C 1004.7 hPa South 19 km/h 24 km/h 85% 0.00 mm 362.70 W/m2
10:18 28.0 °C 25.0 °C 1005.0 hPa SSE 22 km/h 28 km/h 83% 0.00 mm 393.97 W/m2
10:24 29.0 °C 26.0 °C 1004.7 hPa SE 13 km/h 28 km/h 83% 0.00 mm 372.56 W/m2
10:29 29.0 °C 25.0 °C 1004.7 hPa SSE 9 km/h 20 km/h 81% 0.00 mm 442.02 W/m2
10:34 29.0 °C 25.0 °C 1004.7 hPa ESE 4 km/h 24 km/h 82% 0.00 mm 348.02 W/m2
10:39 29.0 °C 26.0 °C 1004.7 hPa SE 14 km/h 20 km/h 83% 0.00 mm 274.69 W/m2
10:44 29.0 °C 25.0 °C 1004.7 hPa Calm   4 km/h 83% 0.00 mm 275.81 W/m2
10:49 29.0 °C 25.0 °C 1004.7 hPa Calm   4 km/h 80% 0.00 mm 220.35 W/m2
10:54 28.0 °C 25.0 °C 1004.7 hPa SSE 8 km/h 8 km/h 80% 0.00 mm 172.86 W/m2
10:59 29.0 °C 25.0 °C 1004.7 hPa SSE 12 km/h 12 km/h 80% 0.00 mm 195.86 W/m2
11:04 28.0 °C 25.0 °C 1004.7 hPa SSE 14 km/h 16 km/h 81% 0.00 mm 321.91 W/m2
11:09 29.0 °C 25.0 °C 1004.7 hPa South 18 km/h 20 km/h 80% 0.00 mm 462.11 W/m2
11:14 29.0 °C 25.0 °C 1004.7 hPa SE 26 km/h 32 km/h 79% 0.00 mm 428.86 W/m2
11:19 29.0 °C 25.0 °C 1004.5 hPa SSE 18 km/h 20 km/h 79% 0.00 mm 377.89 W/m2
11:24 29.0 °C 25.0 °C 1004.4 hPa SSE 27 km/h 32 km/h 80% 0.00 mm 428.78 W/m2
11:29 30.0 °C 26.0 °C 1004.3 hPa SSE 20 km/h 24 km/h 80% 0.00 mm 527.95 W/m2
11:34 30.0 °C 26.0 °C 1004.3 hPa SSE 20 km/h 24 km/h 78% 0.00 mm 543.44 W/m2
11:39 30.0 °C 25.0 °C 1004.4 hPa SSE 22 km/h 28 km/h 80% 0.00 mm 523.84 W/m2
11:44 29.0 °C 26.0 °C 1004.4 hPa SSE 25 km/h 28 km/h 82% 0.00 mm 421.32 W/m2
11:49 29.0 °C 26.0 °C 1004.4 hPa South 20 km/h 24 km/h 81% 0.00 mm 332.02 W/m2
11:54 29.0 °C 25.0 °C 1004.4 hPa South 17 km/h 24 km/h 82% 0.00 mm 307.96 W/m2
11:56 29.0 °C 26.0 °C 1004.1 hPa South 10 km/h 16 km/h 82% 0.00 mm 334.44 W/m2
12:04 29.0 °C 26.0 °C 1004.3 hPa SSE 10 km/h 12 km/h 83% 0.00 mm 392.52 W/m2
12:09 29.0 °C 26.0 °C 1004.3 hPa South 23 km/h 28 km/h 82% 0.00 mm 489.71 W/m2
12:14 29.0 °C 25.0 °C 1004.3 hPa SSE 23 km/h 28 km/h 82% 0.00 mm 422.64 W/m2
12:19 29.0 °C 26.0 °C 1004.2 hPa South 14 km/h 20 km/h 82% 0.00 mm 422.52 W/m2
12:24 29.0 °C 25.0 °C 1004.3 hPa SSE 21 km/h 24 km/h 82% 0.00 mm 377.01 W/m2
12:29 29.0 °C 26.0 °C 1004.1 hPa South 13 km/h 16 km/h 82% 0.00 mm 331.77 W/m2
12:34 29.0 °C 25.0 °C 1004.2 hPa South 14 km/h 20 km/h 79% 0.00 mm 375.62 W/m2
12:39 29.0 °C 25.0 °C 1004.0 hPa SSE 21 km/h 32 km/h 79% 0.00 mm 496.48 W/m2
12:44 30.0 °C 26.0 °C 1003.9 hPa SSE 14 km/h 20 km/h 79% 0.00 mm 430.59 W/m2
12:49 30.0 °C 26.0 °C 1003.9 hPa South 17 km/h 20 km/h 78% 0.00 mm 345.55 W/m2
12:54 30.0 °C 25.0 °C 1004.0 hPa South 20 km/h 28 km/h 78% 0.00 mm 356.85 W/m2
12:59 30.0 °C 25.0 °C 1003.9 hPa SSE 19 km/h 24 km/h 79% 0.00 mm 317.80 W/m2
13:04 30.0 °C 25.0 °C 1003.8 hPa SSE 18 km/h 24 km/h 77% 0.00 mm 249.22 W/m2
13:09 30.0 °C 25.0 °C 1004.1 hPa SSE 15 km/h 20 km/h 76% 0.00 mm 210.95 W/m2
13:14 29.0 °C 25.0 °C 1003.8 hPa SSE 14 km/h 20 km/h 78% 0.00 mm 182.64 W/m2
13:19 29.0 °C 25.0 °C 1003.9 hPa South 17 km/h 20 km/h 78% 0.00 mm 211.83 W/m2
13:24 30.0 °C 25.0 °C 1003.8 hPa SSE 12 km/h 16 km/h 78% 0.00 mm 380.75 W/m2
13:29 30.0 °C 25.0 °C 1003.8 hPa SSE 15 km/h 24 km/h 74% 0.00 mm 487.31 W/m2
13:34 31.0 °C 25.0 °C 1003.6 hPa South 17 km/h 20 km/h 71% 0.00 mm 362.43 W/m2
13:38 31.0 °C 25.0 °C 1003.6 hPa SSW 15 km/h 20 km/h 72% 0.00 mm 553.47 W/m2
13:43 31.0 °C 25.0 °C 1003.7 hPa SSE 13 km/h 16 km/h 71% 0.00 mm 638.13 W/m2
13:49 31.0 °C 25.0 °C 1003.6 hPa SSE 15 km/h 28 km/h 72% 0.00 mm 439.40 W/m2
13:54 31.0 °C 25.0 °C 1003.5 hPa South 15 km/h 20 km/h 73% 0.00 mm 578.60 W/m2
13:59 32.0 °C 26.0 °C 1003.5 hPa South 15 km/h 20 km/h 74% 0.00 mm 431.13 W/m2
14:04 31.0 °C 26.0 °C 1003.6 hPa South 11 km/h 16 km/h 75% 0.00 mm 416.40 W/m2
14:09 31.0 °C 26.0 °C 1003.6 hPa SSW 16 km/h 20 km/h 76% 0.00 mm 392.65 W/m2
14:14 31.0 °C 26.0 °C 1003.4 hPa SSE 15 km/h 20 km/h 76% 0.00 mm 341.80 W/m2
14:19 31.0 °C 26.0 °C 1003.4 hPa South 21 km/h 24 km/h 77% 0.00 mm 371.92 W/m2
14:24 31.0 °C 26.0 °C 1003.2 hPa South 13 km/h 20 km/h 77% 0.00 mm 569.89 W/m2
14:29 31.0 °C 26.0 °C 1003.2 hPa South 15 km/h 20 km/h 77% 0.00 mm 639.59 W/m2
14:34 31.0 °C 26.0 °C 1003.0 hPa SSE 17 km/h 20 km/h 76% 0.00 mm 659.46 W/m2
14:39 31.0 °C 26.0 °C 1003.1 hPa SSW 20 km/h 24 km/h 76% 0.00 mm 637.66 W/m2
14:44 31.0 °C 26.0 °C 1003.2 hPa South 20 km/h 24 km/h 79% 0.00 mm 638.47 W/m2
14:49 31.0 °C 27.0 °C 1003.2 hPa South 20 km/h 24 km/h 79% 0.00 mm 598.98 W/m2
14:54 30.0 °C 27.0 °C 1003.0 hPa SSW 19 km/h 24 km/h 82% 0.00 mm 592.32 W/m2
14:59 30.0 °C 26.0 °C 1003.1 hPa SW 19 km/h 28 km/h 82% 0.00 mm 457.75 W/m2
15:04 29.0 °C 26.0 °C 1003.0 hPa SSW 25 km/h 32 km/h 84% 0.00 mm 351.52 W/m2
15:09 29.0 °C 26.0 °C 1002.9 hPa South 20 km/h 28 km/h 85% 0.00 mm 238.97 W/m2
15:14 28.0 °C 26.0 °C 1002.8 hPa SSW 18 km/h 24 km/h 85% 0.00 mm 220.74 W/m2
15:19 28.0 °C 26.0 °C 1002.9 hPa South 17 km/h 24 km/h 86% 0.00 mm 215.94 W/m2
15:24 28.0 °C 26.0 °C 1002.9 hPa South 13 km/h 16 km/h 85% 0.00 mm 208.16 W/m2
15:29 29.0 °C 26.0 °C 1002.8 hPa South 15 km/h 20 km/h 85% 0.00 mm 207.01 W/m2
15:34 29.0 °C 26.0 °C 1003.1 hPa SSW 14 km/h 20 km/h 83% 0.00 mm 225.97 W/m2
15:39 29.0 °C 26.0 °C 1003.1 hPa SSW 15 km/h 20 km/h 83% 0.00 mm 241.29 W/m2
15:44 29.0 °C 26.0 °C 1003.1 hPa South 17 km/h 24 km/h 82% 0.00 mm 228.98 W/m2
15:49 29.0 °C 26.0 °C 1003.1 hPa SSW 18 km/h 20 km/h 82% 0.00 mm 168.31 W/m2
15:54 29.0 °C 26.0 °C 1003.1 hPa SSW 15 km/h 20 km/h 84% 0.00 mm 167.77 W/m2
15:59 29.0 °C 26.0 °C 1002.7 hPa SSW 15 km/h 20 km/h 85% 0.00 mm 263.39 W/m2
16:04 29.0 °C 26.0 °C 1003.1 hPa South 14 km/h 20 km/h 86% 0.00 mm 126.49 W/m2
16:09 29.0 °C 26.0 °C 1003.1 hPa South 13 km/h 16 km/h 86% 0.00 mm 119.37 W/m2
16:14 28.0 °C 26.0 °C 1003.1 hPa South 14 km/h 20 km/h 87% 0.00 mm 176.75 W/m2
16:19 28.0 °C 26.0 °C 1003.3 hPa South 16 km/h 20 km/h 87% 0.00 mm 273.03 W/m2
16:24 28.0 °C 26.0 °C 1003.3 hPa South 22 km/h 24 km/h 86% 0.00 mm 148.63 W/m2
16:29 28.0 °C 26.0 °C 1003.3 hPa South 17 km/h 24 km/h 85% 0.00 mm 120.06 W/m2
16:34 28.0 °C 26.0 °C 1003.5 hPa South 16 km/h 20 km/h 86% 0.00 mm 171.39 W/m2
16:39 28.0 °C 26.0 °C 1003.7 hPa SSW 18 km/h 24 km/h 86% 0.00 mm 170.39 W/m2
16:44 28.0 °C 26.0 °C 1003.5 hPa SSW 18 km/h 24 km/h 86% 0.00 mm 150.35 W/m2
16:49 28.0 °C 25.0 °C 1003.6 hPa South 18 km/h 20 km/h 86% 0.00 mm 96.18 W/m2
16:54 28.0 °C 25.0 °C 1003.7 hPa SSW 14 km/h 16 km/h 86% 0.00 mm 69.37 W/m2
16:59 28.0 °C 26.0 °C 1003.7 hPa South 11 km/h 16 km/h 87% 0.00 mm 60.44 W/m2
17:04 28.0 °C 26.0 °C 1003.6 hPa South 13 km/h 16 km/h 88% 0.00 mm 58.71 W/m2
17:09 27.0 °C 25.0 °C 1003.8 hPa SSE 14 km/h 24 km/h 88% 0.00 mm 51.03 W/m2
17:14 27.0 °C 25.0 °C 1003.7 hPa South 14 km/h 16 km/h 88% 0.00 mm 47.44 W/m2
17:19 27.0 °C 25.0 °C 1003.7 hPa South 11 km/h 16 km/h 89% 0.00 mm 38.48 W/m2
17:24 27.0 °C 25.0 °C 1003.7 hPa South 7 km/h 12 km/h 90% 0.00 mm 37.10 W/m2
17:29 27.0 °C 25.0 °C 1003.7 hPa SSE 5 km/h 12 km/h 90% 0.00 mm 36.52 W/m2
17:34 27.0 °C 25.0 °C 1003.7 hPa SSE 8 km/h 12 km/h 90% 0.00 mm 33.45 W/m2
17:39 27.0 °C 25.0 °C 1003.6 hPa Calm   4 km/h 90% 0.00 mm 30.53 W/m2
17:44 27.0 °C 25.0 °C 1003.7 hPa ESE 6 km/h 16 km/h 90% 0.00 mm 27.41 W/m2
17:49 27.0 °C 25.0 °C 1003.7 hPa SSE 4 km/h 8 km/h 89% 0.00 mm 23.03 W/m2
17:54 27.0 °C 25.0 °C 1003.9 hPa SSE 6 km/h 12 km/h 88% 0.00 mm 18.91 W/m2
17:59 27.0 °C 25.0 °C 1003.9 hPa SE 9 km/h 12 km/h 87% 0.00 mm 14.03 W/m2
18:04 27.0 °C 25.0 °C 1003.7 hPa SSE 12 km/h 16 km/h 87% 0.00 mm 11.70 W/m2
18:09 27.0 °C 25.0 °C 1003.9 hPa SSE 12 km/h 16 km/h 88% 0.00 mm 7.75 W/m2
18:14 27.0 °C 25.0 °C 1004.0 hPa SSE 9 km/h 12 km/h 88% 0.00 mm 4.31 W/m2
18:19 27.0 °C 25.0 °C 1003.9 hPa SE 15 km/h 20 km/h 88% 0.00 mm 0.91 W/m2
18:24 27.0 °C 25.0 °C 1004.0 hPa SSE 8 km/h 12 km/h 87% 0.00 mm 0.00 W/m2
18:29 27.0 °C 25.0 °C 1004.1 hPa SSE 20 km/h 24 km/h 87% 0.00 mm 0.00 W/m2
18:34 27.0 °C 25.0 °C 1004.4 hPa SSE 10 km/h 16 km/h 86% 0.00 mm 0.00 W/m2
18:39 27.0 °C 25.0 °C 1004.4 hPa SE 14 km/h 16 km/h 87% 0.00 mm 0.00 W/m2
18:44 27.0 °C 25.0 °C 1004.4 hPa SE 8 km/h 16 km/h 87% 0.00 mm 0.00 W/m2
18:49 27.0 °C 25.0 °C 1004.4 hPa SSE 17 km/h 24 km/h 86% 0.00 mm 0.00 W/m2
18:54 27.0 °C 25.0 °C 1004.4 hPa Calm     85% 0.00 mm 0.00 W/m2
18:59 28.0 °C 25.0 °C 1004.2 hPa South 13 km/h 16 km/h 85% 0.00 mm 0.00 W/m2
19:04 28.0 °C 25.0 °C 1004.4 hPa SSE 12 km/h 16 km/h 85% 0.00 mm 0.00 W/m2
19:09 28.0 °C 25.0 °C 1004.6 hPa SE 7 km/h 8 km/h 85% 0.00 mm 0.00 W/m2
19:14 28.0 °C 25.0 °C 1004.5 hPa SE 10 km/h 12 km/h 85% 0.00 mm 0.00 W/m2
19:19 28.0 °C 25.0 °C 1004.7 hPa SSE 15 km/h 20 km/h 84% 0.00 mm 0.00 W/m2
19:24 28.0 °C 25.0 °C 1004.8 hPa SE 14 km/h 16 km/h 83% 0.00 mm 0.00 W/m2
19:29 28.0 °C 25.0 °C 1004.9 hPa SE 18 km/h 20 km/h 83% 0.00 mm 0.00 W/m2
19:34 28.0 °C 25.0 °C 1005.0 hPa SE 6 km/h 8 km/h 83% 0.00 mm 0.00 W/m2
19:39 28.0 °C 25.0 °C 1005.0 hPa Calm     83% 0.00 mm 0.00 W/m2
19:44 28.0 °C 25.0 °C 1005.2 hPa SE 3 km/h 8 km/h 83% 0.00 mm 0.00 W/m2
19:49 28.0 °C 25.0 °C 1005.2 hPa SE 12 km/h 16 km/h 83% 0.00 mm 0.00 W/m2
19:54 28.0 °C 24.0 °C 1005.2 hPa SE 9 km/h 12 km/h 82% 0.00 mm 0.00 W/m2
19:59 28.0 °C 24.0 °C 1005.3 hPa SSE 13 km/h 16 km/h 81% 0.00 mm 0.00 W/m2
20:04 28.0 °C 24.0 °C 1005.4 hPa SE 13 km/h 16 km/h 82% 0.00 mm 0.00 W/m2
20:09 28.0 °C 24.0 °C 1005.3 hPa SE 12 km/h 12 km/h 82% 0.00 mm 0.00 W/m2
20:14 28.0 °C 24.0 °C 1005.4 hPa SE 5 km/h 8 km/h 82% 0.00 mm 0.00 W/m2
20:19 28.0 °C 24.0 °C 1005.6 hPa SE 15 km/h 20 km/h 82% 0.00 mm 0.00 W/m2
20:24 28.0 °C 24.0 °C 1005.6 hPa SE 12 km/h 16 km/h 82% 0.00 mm 0.00 W/m2
20:29 28.0 °C 24.0 °C 1005.5 hPa SE 17 km/h 20 km/h 82% 0.00 mm 0.00 W/m2
20:33 28.0 °C 24.0 °C 1005.4 hPa Calm     82% 0.00 mm 0.00 W/m2
20:39 28.0 °C 24.0 °C 1005.4 hPa SSE 6 km/h 8 km/h 81% 0.00 mm 0.00 W/m2
20:44 28.0 °C 24.0 °C 1005.8 hPa SE 8 km/h 12 km/h 81% 0.00 mm 0.00 W/m2
20:49 28.0 °C 24.0 °C 1005.6 hPa SSE 4 km/h 8 km/h 81% 0.00 mm 0.00 W/m2
20:54 28.0 °C 24.0 °C 1005.6 hPa SSE 8 km/h 12 km/h 82% 0.00 mm 0.00 W/m2
20:59 28.0 °C 24.0 °C 1005.8 hPa Calm     82% 0.00 mm 0.00 W/m2
21:04 28.0 °C 25.0 °C 1005.6 hPa SE 10 km/h 16 km/h 83% 0.00 mm 0.00 W/m2
21:09 28.0 °C 25.0 °C 1005.5 hPa ESE 3 km/h 4 km/h 83% 0.00 mm 0.00 W/m2
21:14 28.0 °C 25.0 °C 1005.5 hPa SE 8 km/h 12 km/h 83% 0.00 mm 0.00 W/m2
21:18 28.0 °C 25.0 °C 1005.7 hPa SE 6 km/h 12 km/h 83% 0.00 mm 0.00 W/m2
21:29 28.0 °C 24.0 °C 1005.8 hPa NE 3 km/h 4 km/h 82% 0.00 mm 0.00 W/m2
21:34 28.0 °C 24.0 °C 1005.8 hPa SE 3 km/h 8 km/h 82% 0.00 mm 0.00 W/m2
21:39 28.0 °C 24.0 °C 1005.8 hPa ESE 4 km/h 8 km/h 81% 0.00 mm 0.00 W/m2
21:44 28.0 °C 24.0 °C 1005.8 hPa SE 4 km/h 8 km/h 82% 0.00 mm 0.00 W/m2
21:49 28.0 °C 24.0 °C 1005.8 hPa ESE 9 km/h 12 km/h 82% 0.00 mm 0.00 W/m2
21:54 28.0 °C 25.0 °C 1005.8 hPa SE 7 km/h 12 km/h 83% 0.00 mm 0.00 W/m2
21:59 28.0 °C 25.0 °C 1005.8 hPa SE 6 km/h 8 km/h 83% 0.00 mm 0.00 W/m2
22:04 28.0 °C 25.0 °C 1005.8 hPa Calm     83% 0.00 mm 0.00 W/m2
22:09 28.0 °C 25.0 °C 1005.8 hPa SE 4 km/h 8 km/h 83% 0.00 mm 0.00 W/m2
22:14 28.0 °C 25.0 °C 1006.1 hPa ESE 7 km/h 12 km/h 83% 0.00 mm 0.00 W/m2
22:19 28.0 °C 25.0 °C 1006.1 hPa SE 8 km/h 12 km/h 83% 0.00 mm 0.00 W/m2
22:24 28.0 °C 25.0 °C 1005.8 hPa Calm   4 km/h 83% 0.00 mm 0.00 W/m2
22:29 28.0 °C 25.0 °C 1005.8 hPa ESE 5 km/h 8 km/h 83% 0.00 mm 0.00 W/m2
22:34 28.0 °C 25.0 °C 1005.8 hPa ESE 8 km/h 12 km/h 83% 0.00 mm 0.00 W/m2
22:39 28.0 °C 24.0 °C 1005.8 hPa SE 9 km/h 12 km/h 82% 0.00 mm 0.00 W/m2
22:44 28.0 °C 24.0 °C 1005.8 hPa SE 15 km/h 20 km/h 82% 0.00 mm 0.00 W/m2
22:49 28.0 °C 24.0 °C 1005.8 hPa SSE 18 km/h 20 km/h 82% 0.00 mm 0.00 W/m2
22:54 28.0 °C 24.0 °C 1005.8 hPa Calm     82% 0.00 mm 0.00 W/m2
22:59 28.0 °C 24.0 °C 1005.8 hPa SSE 4 km/h 8 km/h 82% 0.00 mm 0.00 W/m2
23:02 28.0 °C 24.0 °C 1005.4 hPa Calm   4 km/h 82% 0.00 mm 0.00 W/m2
23:09 28.0 °C 24.0 °C 1005.2 hPa SE 5 km/h 8 km/h 82% 0.00 mm 0.00 W/m2
23:14 28.0 °C 24.0 °C 1005.4 hPa Calm     82% 0.00 mm 0.00 W/m2
23:19 28.0 °C 24.0 °C 1005.4 hPa Calm     82% 0.00 mm 0.00 W/m2
23:24 28.0 °C 25.0 °C 1005.1 hPa SE 1 km/h 4 km/h 83% 0.00 mm 0.00 W/m2
23:29 28.0 °C 25.0 °C 1005.1 hPa Calm     83% 0.00 mm 0.00 W/m2
23:34 28.0 °C 25.0 °C 1005.1 hPa Calm     83% 0.00 mm 0.00 W/m2
23:39 28.0 °C 25.0 °C 1005.1 hPa ESE 2 km/h 8 km/h 83% 0.00 mm 0.00 W/m2
23:44 28.0 °C 25.0 °C 1005.1 hPa SE 3 km/h 8 km/h 83% 0.00 mm 0.00 W/m2
23:49 28.0 °C 25.0 °C 1005.1 hPa SE 9 km/h 12 km/h 83% 0.00 mm 0.00 W/m2
23:54 28.0 °C 24.0 °C 1005.1 hPa Calm     82% 0.00 mm 0.00 W/m2
23:59 28.0 °C 24.0 °C 1005.1 hPa Calm     82% 0.00 mm 0.00 W/m2
PIMOHWEATHER Philippines
Compliments of Weather Underground - 2 mb